Surbiton, United Kingdom
Current Conditions -  °F | °C
As of 8:50 AM on Saturday 22 Nov 2014 (Local Time) from EGLL Reporting Station
Light Rain Light Rain  
Wind Chill: 55°   Ceiling: 700
Heat Index: 55°   Visibility: 2.8mi
Dew Point: 54°   Wind: 7mph
Humidity: 94%   Direction: 160°SSE
Pressure: 29.88"   Gusts: NA
Location:  51.39°N, 0.3°W
Report Text: EGLL 220850Z 16006KT 100V250 4500 -RADZ BR BKN007 13/12 Q1012 TEMPO 5000
Loading
Personal Weather Stations






























Interactive Weather Map New forecast layout! Learn more

10-Day Weather Forecast

Advertisements
Track Severe Weather on mobile